createdAt,value
2018-07-31T00:02:07.418Z,18.10
2018-07-31T00:12:09.038Z,18.00
2018-07-31T00:22:10.409Z,18.00
2018-07-31T00:32:11.764Z,17.90
2018-07-31T00:42:13.958Z,17.90
2018-07-31T00:52:15.226Z,17.80
2018-07-31T01:02:16.497Z,17.70
2018-07-31T01:12:18.607Z,17.60
2018-07-31T01:22:23.821Z,17.60
2018-07-31T01:32:25.242Z,17.60
2018-07-31T01:42:26.661Z,17.50
2018-07-31T01:52:28.013Z,17.40
2018-07-31T02:02:29.308Z,17.30
2018-07-31T02:12:30.622Z,17.30
2018-07-31T02:22:31.935Z,17.30
2018-07-31T02:32:33.197Z,17.20
2018-07-31T02:42:34.498Z,17.10
2018-07-31T02:52:35.794Z,17.00
2018-07-31T03:02:37.163Z,17.00
2018-07-31T03:43:03.421Z,16.90
2018-07-31T03:53:04.699Z,17.00
2018-07-31T04:03:05.973Z,17.00
2018-07-31T04:13:07.219Z,17.10
2018-07-31T04:23:09.234Z,17.40
2018-07-31T04:33:10.479Z,17.40
2018-07-31T04:43:11.735Z,17.60
2018-07-31T04:53:13.013Z,17.80
2018-07-31T05:33:36.063Z,19.20
2018-07-31T05:43:41.400Z,19.70
2018-07-31T05:53:42.668Z,20.20
2018-07-31T06:03:43.956Z,21.10
2018-07-31T06:23:52.609Z,22.10
2018-07-31T06:33:53.854Z,22.70
2018-07-31T06:43:55.143Z,23.30
2018-07-31T06:53:56.531Z,23.90
2018-07-31T07:03:58.614Z,25.10
2018-07-31T07:14:00.691Z,25.80
2018-07-31T07:24:02.714Z,26.50
2018-07-31T07:34:04.889Z,28.50
2018-07-31T07:44:06.109Z,28.30
2018-07-31T07:54:07.389Z,33.10
2018-07-31T08:04:08.679Z,32.50
2018-07-31T08:14:10.152Z,35.50
2018-07-31T08:24:11.602Z,39.70
2018-07-31T08:34:12.855Z,40.20
2018-07-31T08:44:14.096Z,40.80
2018-07-31T08:54:15.334Z,42.00
2018-07-31T09:04:16.578Z,41.50
2018-07-31T09:14:17.809Z,43.00
2018-07-31T09:24:19.091Z,40.90
2018-07-31T09:34:20.350Z,39.90
2018-07-31T09:44:22.394Z,40.80
2018-07-31T09:54:23.666Z,41.50
2018-07-31T10:04:25.042Z,41.00
2018-07-31T10:14:26.447Z,42.00
2018-07-31T10:24:27.760Z,42.60
2018-07-31T10:34:29.165Z,40.30
2018-07-31T10:44:30.429Z,38.70
2018-07-31T10:54:33.384Z,36.60
2018-07-31T11:04:35.680Z,35.30
2018-07-31T11:14:36.951Z,35.20
2018-07-31T11:24:38.413Z,34.60
2018-07-31T11:34:40.039Z,34.20
2018-07-31T11:44:41.375Z,33.40
2018-07-31T11:54:43.737Z,33.60
2018-07-31T12:04:48.309Z,33.90
2018-07-31T12:14:49.641Z,33.50
2018-07-31T12:24:50.938Z,33.60
2018-07-31T12:34:52.258Z,34.00
2018-07-31T12:44:53.505Z,33.20
2018-07-31T12:54:54.812Z,32.30
2018-07-31T13:04:56.057Z,32.30
2018-07-31T13:14:58.065Z,32.40
2018-07-31T13:24:59.311Z,32.40
2018-07-31T13:35:00.662Z,32.30
2018-07-31T13:45:07.765Z,31.90
2018-07-31T13:55:09.089Z,31.80
2018-07-31T14:05:10.397Z,31.90
2018-07-31T14:15:11.682Z,31.80
2018-07-31T14:25:13.124Z,31.70
2018-07-31T14:35:14.603Z,31.80
2018-07-31T14:45:15.870Z,31.70
2018-07-31T14:55:17.221Z,31.70
2018-07-31T15:05:19.553Z,31.60
2018-07-31T15:15:21.589Z,31.40
2018-07-31T15:25:22.849Z,31.40
2018-07-31T15:45:34.640Z,31.30
2018-07-31T15:55:35.911Z,31.30
2018-07-31T16:05:37.321Z,31.30
2018-07-31T16:15:38.696Z,31.30
2018-07-31T16:25:39.989Z,30.90
2018-07-31T16:35:41.338Z,30.50
2018-07-31T16:45:42.604Z,30.50
2018-07-31T16:55:43.879Z,29.90
2018-07-31T17:05:45.127Z,29.80
2018-07-31T17:15:46.386Z,29.70
2018-07-31T17:25:48.410Z,29.20
2018-07-31T17:35:49.658Z,29.10
2018-07-31T17:45:50.929Z,28.70
2018-07-31T17:55:52.187Z,28.00
2018-07-31T18:05:53.472Z,27.30
2018-07-31T18:15:54.725Z,26.70
2018-07-31T18:25:56.133Z,26.20
2018-07-31T18:35:59.380Z,25.10
2018-07-31T18:46:00.852Z,25.00
2018-07-31T18:56:02.647Z,24.60
2018-07-31T19:06:04.217Z,24.30
2018-07-31T19:16:05.730Z,24.00
2018-07-31T19:26:08.200Z,23.90
2018-07-31T19:36:09.755Z,23.60
2018-07-31T19:46:11.230Z,23.40
2018-07-31T19:56:12.624Z,23.00
2018-07-31T20:06:17.774Z,22.80
2018-07-31T20:16:19.162Z,22.80
2018-07-31T20:26:20.531Z,22.50
2018-07-31T20:36:21.865Z,22.30
2018-07-31T20:46:23.994Z,21.80
2018-07-31T20:56:25.299Z,21.70
2018-07-31T21:06:26.646Z,21.70
2018-07-31T21:16:28.253Z,21.70
2018-07-31T21:26:29.960Z,21.70
2018-07-31T21:36:32.079Z,21.60
2018-07-31T21:46:33.781Z,21.50
2018-07-31T21:56:35.281Z,21.50
2018-07-31T22:06:36.575Z,21.40
2018-07-31T22:16:37.882Z,21.20
2018-07-31T22:26:39.154Z,21.00
2018-07-31T22:36:40.433Z,20.70
2018-07-31T22:46:41.796Z,20.50
2018-07-31T22:56:43.056Z,20.50
2018-07-31T23:06:45.122Z,20.10
2018-07-31T23:16:46.404Z,20.10
2018-07-31T23:26:47.651Z,20.10
2018-07-31T23:36:48.927Z,19.80
2018-07-31T23:46:50.230Z,19.80
2018-07-31T23:56:51.526Z,19.60
